sensor_id;sensor_type;location;lat;lon;timestamp;pressure;altitude;pressure_sealevel;temperature;humidity
45078;BME280;60508;42.622;25.416;2023-06-14T00:02:36;96512.56;;;20.05;82.26
45078;BME280;60508;42.622;25.416;2023-06-14T00:05:03;96507.25;;;20.00;82.56
45078;BME280;60508;42.622;25.416;2023-06-14T00:07:40;96501.31;;;19.98;81.74
45078;BME280;60508;42.622;25.416;2023-06-14T00:10:15;96507.56;;;19.98;81.84
45078;BME280;60508;42.622;25.416;2023-06-14T00:12:43;96502.28;;;20.02;81.27
45078;BME280;60508;42.622;25.416;2023-06-14T00:15:09;96503.81;;;19.94;81.80
45078;BME280;60508;42.622;25.416;2023-06-14T00:17:36;96501.31;;;19.98;82.01
45078;BME280;60508;42.622;25.416;2023-06-14T00:20:12;96491.81;;;19.95;82.12
45078;BME280;60508;42.622;25.416;2023-06-14T00:22:38;96493.78;;;20.03;82.03
45078;BME280;60508;42.622;25.416;2023-06-14T00:25:06;96502.75;;;20.04;81.90
45078;BME280;60508;42.622;25.416;2023-06-14T00:27:33;96494.66;;;20.13;81.22
45078;BME280;60508;42.622;25.416;2023-06-14T00:30:07;96489.84;;;20.18;80.15
45078;BME280;60508;42.622;25.416;2023-06-14T00:32:34;96479.19;;;19.99;81.82
45078;BME280;60508;42.622;25.416;2023-06-14T00:35:01;96491.81;;;19.95;82.93
45078;BME280;60508;42.622;25.416;2023-06-14T00:37:30;96477.75;;;19.79;83.76
45078;BME280;60508;42.622;25.416;2023-06-14T00:39:57;96484.78;;;19.58;85.05
45078;BME280;60508;42.622;25.416;2023-06-14T00:42:31;96476.72;;;19.30;87.39
45078;BME280;60508;42.622;25.416;2023-06-14T00:44:59;96488.72;;;19.29;88.08
45078;BME280;60508;42.622;25.416;2023-06-14T00:47:26;96484.19;;;19.24;89.10
45078;BME280;60508;42.622;25.416;2023-06-14T00:50:01;96482.56;;;19.23;89.20
45078;BME280;60508;42.622;25.416;2023-06-14T00:52:28;96480.34;;;19.25;89.21
45078;BME280;60508;42.622;25.416;2023-06-14T00:54:57;96481.75;;;19.23;89.01
45078;BME280;60508;42.622;25.416;2023-06-14T00:57:25;96471.19;;;19.21;88.79
45078;BME280;60508;42.622;25.416;2023-06-14T00:59:52;96477.94;;;19.24;88.38
45078;BME280;60508;42.622;25.416;2023-06-14T01:02:28;96479.16;;;19.18;87.59
45078;BME280;60508;42.622;25.416;2023-06-14T01:04:54;96480.19;;;19.08;88.54
45078;BME280;60508;42.622;25.416;2023-06-14T01:07:50;96474.34;;;19.01;89.60
45078;BME280;60508;42.622;25.416;2023-06-14T01:10:44;96470.22;;;19.03;90.00
45078;BME280;60508;42.622;25.416;2023-06-14T01:13:33;96469.31;;;19.08;89.86
45078;BME280;60508;42.622;25.416;2023-06-14T01:16:08;96474.16;;;18.97;91.08
45078;BME280;60508;42.622;25.416;2023-06-14T01:18:36;96470.56;;;18.88;91.50
45078;BME280;60508;42.622;25.416;2023-06-14T01:21:02;96472.25;;;18.84;92.67
45078;BME280;60508;42.622;25.416;2023-06-14T01:23:32;96474.16;;;18.69;93.60
45078;BME280;60508;42.622;25.416;2023-06-14T01:26:07;96467.81;;;18.74;93.17
45078;BME280;60508;42.622;25.416;2023-06-14T01:28:34;96464.97;;;18.79;92.72
45078;BME280;60508;42.622;25.416;2023-06-14T01:31:02;96465.72;;;18.85;92.11
45078;BME280;60508;42.622;25.416;2023-06-14T01:33:31;96469.13;;;18.90;91.50
45078;BME280;60508;42.622;25.416;2023-06-14T01:36:08;96470.22;;;19.03;90.55
45078;BME280;60508;42.622;25.416;2023-06-14T01:38:36;96469.00;;;19.09;89.91
45078;BME280;60508;42.622;25.416;2023-06-14T01:41:03;96463.38;;;19.06;89.69
45078;BME280;60508;42.622;25.416;2023-06-14T01:43:40;96473.53;;;19.00;89.41
45078;BME280;60508;42.622;25.416;2023-06-14T01:46:08;96470.34;;;18.98;90.23
45078;BME280;60508;42.622;25.416;2023-06-14T01:48:36;96467.13;;;18.96;90.22
45078;BME280;60508;42.622;25.416;2023-06-14T01:51:12;96463.88;;;18.94;90.51
45078;BME280;60508;42.622;25.416;2023-06-14T01:53:39;96475.88;;;18.93;90.68
45078;BME280;60508;42.622;25.416;2023-06-14T01:56:06;96466.09;;;18.92;90.48
45078;BME280;60508;42.622;25.416;2023-06-14T01:58:37;96468.44;;;18.85;90.36
45078;BME280;60508;42.622;25.416;2023-06-14T02:01:04;96472.03;;;18.80;90.64
45078;BME280;60508;42.622;25.416;2023-06-14T02:03:31;96474.56;;;18.76;91.25
45078;BME280;60508;42.622;25.416;2023-06-14T02:05:59;96471.22;;;18.79;90.53
45078;BME280;60508;42.622;25.416;2023-06-14T02:08:33;96474.69;;;18.85;90.27
45078;BME280;60508;42.622;25.416;2023-06-14T02:11:01;96481.59;;;18.77;90.55
45078;BME280;60508;42.622;25.416;2023-06-14T02:13:27;96467.38;;;18.67;91.31
45078;BME280;60508;42.622;25.416;2023-06-14T02:16:03;96459.34;;;18.61;91.26
45078;BME280;60508;42.622;25.416;2023-06-14T02:18:29;96467.41;;;18.53;91.64
45078;BME280;60508;42.622;25.416;2023-06-14T02:20:56;96466.22;;;18.59;91.86
45078;BME280;60508;42.622;25.416;2023-06-14T02:23:31;96464.88;;;18.56;91.46
45078;BME280;60508;42.622;25.416;2023-06-14T02:25:59;96463.97;;;18.61;90.89
45078;BME280;60508;42.622;25.416;2023-06-14T02:28:27;96465.31;;;18.64;90.37
45078;BME280;60508;42.622;25.416;2023-06-14T02:31:01;96457.03;;;18.69;89.68
45078;BME280;60508;42.622;25.416;2023-06-14T02:33:28;96463.47;;;18.73;89.48
45078;BME280;60508;42.622;25.416;2023-06-14T02:35:54;96446.44;;;18.53;89.85
45078;BME280;60508;42.622;25.416;2023-06-14T02:38:30;96460.34;;;18.66;89.41
45078;BME280;60508;42.622;25.416;2023-06-14T02:40:57;96467.91;;;18.69;89.20
45078;BME280;60508;42.622;25.416;2023-06-14T02:43:26;96474.03;;;18.74;88.88
45078;BME280;60508;42.622;25.416;2023-06-14T02:46:01;96475.66;;;18.75;88.91
45078;BME280;60508;42.622;25.416;2023-06-14T02:48:28;96478.09;;;18.77;88.54
45078;BME280;60508;42.622;25.416;2023-06-14T02:50:54;96485.13;;;18.78;88.46
45078;BME280;60508;42.622;25.416;2023-06-14T02:53:31;96474.56;;;18.76;87.99
45078;BME280;60508;42.622;25.416;2023-06-14T02:55:58;96484.31;;;18.77;88.15
45078;BME280;60508;42.622;25.416;2023-06-14T02:58:25;96485.13;;;18.78;88.25
45078;BME280;60508;42.622;25.416;2023-06-14T03:01:03;96483.03;;;18.89;87.85
45078;BME280;60508;42.622;25.416;2023-06-14T03:03:31;96479.91;;;18.95;87.45
45078;BME280;60508;42.622;25.416;2023-06-14T03:05:58;96486.34;;;19.00;86.92
45078;BME280;60508;42.622;25.416;2023-06-14T03:08:38;96472.13;;;19.03;86.11
45078;BME280;60508;42.622;25.416;2023-06-14T03:11:15;96487.56;;;19.07;85.67
45078;BME280;60508;42.622;25.416;2023-06-14T03:13:43;96482.31;;;19.11;85.48
45078;BME280;60508;42.622;25.416;2023-06-14T03:16:12;96496.59;;;19.16;85.53
45078;BME280;60508;42.622;25.416;2023-06-14T03:18:52;96495.31;;;19.14;85.98
45078;BME280;60508;42.622;25.416;2023-06-14T03:21:19;96496.59;;;19.16;85.88
45078;BME280;60508;42.622;25.416;2023-06-14T03:23:50;96490.47;;;19.11;85.64
45078;BME280;60508;42.622;25.416;2023-06-14T03:26:17;96501.06;;;19.12;85.88
45078;BME280;60508;42.622;25.416;2023-06-14T03:28:53;96499.94;;;19.13;85.70
45078;BME280;60508;42.622;25.416;2023-06-14T03:31:21;96497.91;;;19.19;85.07
45078;BME280;60508;42.622;25.416;2023-06-14T03:33:48;96506.88;;;19.20;84.56
45078;BME280;60508;42.622;25.416;2023-06-14T03:36:15;96507.31;;;19.13;84.50
45078;BME280;60508;42.622;25.416;2023-06-14T03:38:41;96501.75;;;19.18;84.32
45078;BME280;60508;42.622;25.416;2023-06-14T03:41:08;96505.38;;;19.27;83.85
45078;BME280;60508;42.622;25.416;2023-06-14T03:43:36;96506.69;;;19.30;83.16
45078;BME280;60508;42.622;25.416;2023-06-14T03:46:03;96504.31;;;19.37;83.03
45078;BME280;60508;42.622;25.416;2023-06-14T03:48:32;96500.50;;;19.38;83.04
45078;BME280;60508;42.622;25.416;2023-06-14T03:51:00;96502.63;;;19.41;82.77
45078;BME280;60508;42.622;25.416;2023-06-14T03:53:34;96506.94;;;19.42;82.58
45078;BME280;60508;42.622;25.416;2023-06-14T03:56:04;96495.13;;;19.47;82.39
45078;BME280;60508;42.622;25.416;2023-06-14T03:58:40;96496.75;;;19.48;82.03
45078;BME280;60508;42.622;25.416;2023-06-14T04:01:06;96499.66;;;19.51;81.84
45078;BME280;60508;42.622;25.416;2023-06-14T04:03:33;96507.81;;;19.51;82.11
45078;BME280;60508;42.622;25.416;2023-06-14T04:06:01;96500.25;;;19.48;81.41
45078;BME280;60508;42.622;25.416;2023-06-14T04:08:29;96512.66;;;19.55;81.30
45078;BME280;60508;42.622;25.416;2023-06-14T04:10:57;96512.53;;;19.60;81.27
45078;BME280;60508;42.622;25.416;2023-06-14T04:13:31;96511.91;;;19.63;80.98
45078;BME280;60508;42.622;25.416;2023-06-14T04:16:01;96512.09;;;19.66;80.25
45078;BME280;60508;42.622;25.416;2023-06-14T04:18:43;96515.44;;;19.77;79.78
45078;BME280;60508;42.622;25.416;2023-06-14T04:21:09;96519.88;;;19.96;79.67
45078;BME280;60508;42.622;25.416;2023-06-14T04:23:36;96518.47;;;19.98;79.88
45078;BME280;60508;42.622;25.416;2023-06-14T04:26:04;96520.00;;;19.91;79.06
45078;BME280;60508;42.622;25.416;2023-06-14T04:28:31;96524.13;;;19.65;79.55
45078;BME280;60508;42.622;25.416;2023-06-14T04:30:59;96522.47;;;19.56;80.38
45078;BME280;60508;42.622;25.416;2023-06-14T04:33:37;96519.97;;;19.68;79.52
45078;BME280;60508;42.622;25.416;2023-06-14T04:36:14;96538.06;;;19.64;78.29
45078;BME280;60508;42.622;25.416;2023-06-14T04:38:55;96521.59;;;19.69;78.33
45078;BME280;60508;42.622;25.416;2023-06-14T04:41:24;96529.41;;;19.84;76.93
45078;BME280;60508;42.622;25.416;2023-06-14T04:43:58;96527.69;;;19.88;76.71
45078;BME280;60508;42.622;25.416;2023-06-14T04:46:29;96529.63;;;19.88;76.21
45078;BME280;60508;42.622;25.416;2023-06-14T04:49:02;96539.47;;;19.98;76.38
45078;BME280;60508;42.622;25.416;2023-06-14T04:51:29;96539.19;;;19.99;75.90
45078;BME280;60508;42.622;25.416;2023-06-14T04:53:58;96546.75;;;20.02;76.26
45078;BME280;60508;42.622;25.416;2023-06-14T04:56:26;96555.09;;;20.06;75.98
45078;BME280;60508;42.622;25.416;2023-06-14T04:58:53;96550.94;;;20.09;75.90
45078;BME280;60508;42.622;25.416;2023-06-14T05:01:20;96559.19;;;20.17;75.79
45078;BME280;60508;42.622;25.416;2023-06-14T05:03:47;96549.69;;;20.15;75.50
45078;BME280;60508;42.622;25.416;2023-06-14T05:06:21;96559.22;;;20.26;75.26
45078;BME280;60508;42.622;25.416;2023-06-14T05:08:49;96569.38;;;20.34;75.35
45078;BME280;60508;42.622;25.416;2023-06-14T05:11:16;96572.28;;;20.38;75.58
45078;BME280;60508;42.622;25.416;2023-06-14T05:13:46;96573.28;;;20.42;75.66
45078;BME280;60508;42.622;25.416;2023-06-14T05:16:23;96567.84;;;20.42;75.41
45078;BME280;60508;42.622;25.416;2023-06-14T05:18:51;96570.69;;;20.37;75.02
45078;BME280;60508;42.622;25.416;2023-06-14T05:21:18;96581.00;;;20.40;75.29
45078;BME280;60508;42.622;25.416;2023-06-14T05:23:54;96576.81;;;20.42;75.25
45078;BME280;60508;42.622;25.416;2023-06-14T05:26:22;96581.03;;;20.49;74.37
45078;BME280;60508;42.622;25.416;2023-06-14T05:28:51;96586.94;;;20.42;74.05
45078;BME280;60508;42.622;25.416;2023-06-14T05:31:19;96592.53;;;20.37;74.66
45078;BME280;60508;42.622;25.416;2023-06-14T05:33:46;96591.91;;;20.40;74.32
45078;BME280;60508;42.622;25.416;2023-06-14T05:36:19;96591.28;;;20.43;73.80
45078;BME280;60508;42.622;25.416;2023-06-14T05:38:48;96587.50;;;20.53;73.65
45078;BME280;60508;42.622;25.416;2023-06-14T05:41:15;96589.66;;;20.65;72.85
45078;BME280;60508;42.622;25.416;2023-06-14T05:43:42;96587.78;;;20.74;72.26
45078;BME280;60508;42.622;25.416;2023-06-14T05:46:08;96588.72;;;20.69;71.20
45078;BME280;60508;42.622;25.416;2023-06-14T05:48:35;96595.66;;;20.75;71.63
45078;BME280;60508;42.622;25.416;2023-06-14T05:51:02;96591.69;;;20.82;71.07
45078;BME280;60508;42.622;25.416;2023-06-14T05:53:37;96599.22;;;20.85;71.15
45078;BME280;60508;42.622;25.416;2023-06-14T05:56:04;96602.00;;;20.93;70.78
45078;BME280;60508;42.622;25.416;2023-06-14T05:58:31;96601.53;;;21.00;69.90
45078;BME280;60508;42.622;25.416;2023-06-14T06:01:06;96600.78;;;21.08;70.18
45078;BME280;60508;42.622;25.416;2023-06-14T06:03:33;96608.34;;;21.11;68.95
45078;BME280;60508;42.622;25.416;2023-06-14T06:06:00;96610.47;;;21.23;68.21
45078;BME280;60508;42.622;25.416;2023-06-14T06:08:27;96606.16;;;21.31;67.61
45078;BME280;60508;42.622;25.416;2023-06-14T06:10:54;96607.94;;;21.36;67.89
45078;BME280;60508;42.622;25.416;2023-06-14T06:13:23;96606.66;;;21.42;68.19
45078;BME280;60508;42.622;25.416;2023-06-14T06:15:51;96615.56;;;21.65;66.96
45078;BME280;60508;42.622;25.416;2023-06-14T06:18:25;96620.56;;;21.72;66.30
45078;BME280;60508;42.622;25.416;2023-06-14T06:20:52;96613.19;;;21.81;66.25
45078;BME280;60508;42.622;25.416;2023-06-14T06:23:19;96619.16;;;21.92;66.06
45078;BME280;60508;42.622;25.416;2023-06-14T06:25:54;96613.22;;;22.16;65.12
45078;BME280;60508;42.622;25.416;2023-06-14T06:28:20;96621.59;;;22.37;64.95
45078;BME280;60508;42.622;25.416;2023-06-14T06:30:47;96618.81;;;22.46;62.42
45078;BME280;60508;42.622;25.416;2023-06-14T06:33:20;96616.25;;;22.32;62.56
45078;BME280;60508;42.622;25.416;2023-06-14T06:35:46;96617.72;;;22.29;59.97
45078;BME280;60508;42.622;25.416;2023-06-14T06:38:13;96615.28;;;22.36;60.78
45078;BME280;60508;42.622;25.416;2023-06-14T06:40:40;96626.91;;;22.42;60.00
45078;BME280;60508;42.622;25.416;2023-06-14T06:43:07;96618.19;;;22.31;59.83
45078;BME280;60508;42.622;25.416;2023-06-14T06:45:48;96618.53;;;22.30;60.32
45078;BME280;60508;42.622;25.416;2023-06-14T06:48:15;96620.28;;;22.34;59.83
45078;BME280;60508;42.622;25.416;2023-06-14T06:50:42;96622.06;;;22.39;59.23
45078;BME280;60508;42.622;25.416;2023-06-14T06:53:16;96621.53;;;22.63;55.54
45078;BME280;60508;42.622;25.416;2023-06-14T06:55:44;96624.53;;;22.88;56.21
45078;BME280;60508;42.622;25.416;2023-06-14T06:58:12;96637.81;;;22.59;55.97
45078;BME280;60508;42.622;25.416;2023-06-14T07:00:46;96631.16;;;22.78;56.76
45078;BME280;60508;42.622;25.416;2023-06-14T07:03:13;96621.78;;;22.96;56.58
45078;BME280;60508;42.622;25.416;2023-06-14T07:05:40;96630.44;;;23.16;55.93
45078;BME280;60508;42.622;25.416;2023-06-14T07:08:07;96630.69;;;23.32;55.92
45078;BME280;60508;42.622;25.416;2023-06-14T07:10:34;96627.88;;;23.41;55.29
45078;BME280;60508;42.622;25.416;2023-06-14T07:13:01;96631.78;;;23.61;55.20
45078;BME280;60508;42.622;25.416;2023-06-14T07:15:29;96629.25;;;23.56;55.26
45078;BME280;60508;42.622;25.416;2023-06-14T07:17:55;96617.53;;;23.46;56.09
45078;BME280;60508;42.622;25.416;2023-06-14T07:20:25;96630.97;;;23.39;55.58
45078;BME280;60508;42.622;25.416;2023-06-14T07:23:00;96641.81;;;23.27;55.68
45078;BME280;60508;42.622;25.416;2023-06-14T07:25:35;96628.75;;;23.32;56.70
45078;BME280;60508;42.622;25.416;2023-06-14T07:28:02;96629.31;;;23.47;55.97
45078;BME280;60508;42.622;25.416;2023-06-14T07:30:37;96628.13;;;23.57;56.41
45078;BME280;60508;42.622;25.416;2023-06-14T07:33:05;96630.28;;;23.72;55.62
45078;BME280;60508;42.622;25.416;2023-06-14T07:35:32;96637.50;;;23.77;55.69
45078;BME280;60508;42.622;25.416;2023-06-14T07:37:59;96631.06;;;23.51;56.36
45078;BME280;60508;42.622;25.416;2023-06-14T07:40:34;96639.00;;;23.44;56.62
45078;BME280;60508;42.622;25.416;2023-06-14T07:43:00;96635.69;;;23.60;56.44
45078;BME280;60508;42.622;25.416;2023-06-14T07:45:28;96638.69;;;23.67;56.37
45078;BME280;60508;42.622;25.416;2023-06-14T07:48:01;96634.75;;;23.77;56.29
45078;BME280;60508;42.622;25.416;2023-06-14T07:50:28;96637.31;;;23.82;55.71
45078;BME280;60508;42.622;25.416;2023-06-14T07:52:55;96634.31;;;23.75;56.38
45078;BME280;60508;42.622;25.416;2023-06-14T07:55:29;96628.63;;;23.80;55.52
45078;BME280;60508;42.622;25.416;2023-06-14T07:57:55;96630.94;;;23.99;55.40
45078;BME280;60508;42.622;25.416;2023-06-14T08:00:22;96637.09;;;24.17;55.39
45078;BME280;60508;42.622;25.416;2023-06-14T08:02:49;96634.47;;;24.20;54.65
45078;BME280;60508;42.622;25.416;2023-06-14T08:05:18;96639.59;;;24.43;54.02
45078;BME280;60508;42.622;25.416;2023-06-14T08:07:44;96636.13;;;24.55;53.75
45078;BME280;60508;42.622;25.416;2023-06-14T08:10:12;96635.84;;;24.69;53.79
45078;BME280;60508;42.622;25.416;2023-06-14T08:12:46;96620.50;;;24.68;52.44
45078;BME280;60508;42.622;25.416;2023-06-14T08:15:15;96630.16;;;24.86;52.15
45078;BME280;60508;42.622;25.416;2023-06-14T08:17:45;96642.22;;;24.94;51.92
45078;BME280;60508;42.622;25.416;2023-06-14T08:20:12;96640.50;;;25.02;51.98
45078;BME280;60508;42.622;25.416;2023-06-14T08:22:48;96640.50;;;25.14;51.66
45078;BME280;60508;42.622;25.416;2023-06-14T08:25:15;96635.91;;;25.06;49.90
45078;BME280;60508;42.622;25.416;2023-06-14T08:27:42;96639.56;;;24.97;50.11
45078;BME280;60508;42.622;25.416;2023-06-14T08:30:09;96640.81;;;24.88;51.48
45078;BME280;60508;42.622;25.416;2023-06-14T08:32:44;96646.75;;;24.77;51.55
45078;BME280;60508;42.622;25.416;2023-06-14T08:35:11;96641.03;;;24.95;51.20
45078;BME280;60508;42.622;25.416;2023-06-14T08:37:40;96642.84;;;25.24;49.91
45078;BME280;60508;42.622;25.416;2023-06-14T08:40:20;96648.25;;;25.45;49.63
45078;BME280;60508;42.622;25.416;2023-06-14T08:42:51;96638.25;;;25.65;48.87
45078;BME280;60508;42.622;25.416;2023-06-14T08:45:25;96636.53;;;25.85;48.08
45078;BME280;60508;42.622;25.416;2023-06-14T08:47:53;96645.69;;;25.77;47.98
45078;BME280;60508;42.622;25.416;2023-06-14T08:50:24;96640.34;;;25.44;48.60
45078;BME280;60508;42.622;25.416;2023-06-14T08:52:58;96646.97;;;25.43;50.01
45078;BME280;60508;42.622;25.416;2023-06-14T08:55:36;96648.94;;;25.42;49.78
45078;BME280;60508;42.622;25.416;2023-06-14T08:58:07;96638.78;;;25.09;50.76
45078;BME280;60508;42.622;25.416;2023-06-14T09:00:35;96649.63;;;24.81;51.60
45078;BME280;60508;42.622;25.416;2023-06-14T09:03:04;96649.44;;;24.65;51.73
45078;BME280;60508;42.622;25.416;2023-06-14T09:05:38;96643.75;;;24.70;51.66
45078;BME280;60508;42.622;25.416;2023-06-14T09:08:05;96649.34;;;24.74;51.53
45078;BME280;60508;42.622;25.416;2023-06-14T09:10:40;96647.31;;;24.83;51.43
45078;BME280;60508;42.622;25.416;2023-06-14T09:13:08;96650.47;;;25.19;51.12
45078;BME280;60508;42.622;25.416;2023-06-14T09:15:37;96656.03;;;25.43;49.63
45078;BME280;60508;42.622;25.416;2023-06-14T09:18:13;96655.00;;;25.60;49.53
45078;BME280;60508;42.622;25.416;2023-06-14T09:20:40;96655.06;;;25.27;50.53
45078;BME280;60508;42.622;25.416;2023-06-14T09:23:07;96647.19;;;25.62;51.22
45078;BME280;60508;42.622;25.416;2023-06-14T09:25:42;96655.91;;;25.77;49.02
45078;BME280;60508;42.622;25.416;2023-06-14T09:28:10;96647.06;;;25.96;49.04
45078;BME280;60508;42.622;25.416;2023-06-14T09:30:39;96652.78;;;26.15;48.46
45078;BME280;60508;42.622;25.416;2023-06-14T09:33:07;96648.22;;;26.35;48.20
45078;BME280;60508;42.622;25.416;2023-06-14T09:35:34;96649.97;;;26.56;47.99
45078;BME280;60508;42.622;25.416;2023-06-14T09:38:02;96642.78;;;26.80;46.76
45078;BME280;60508;42.622;25.416;2023-06-14T09:40:33;96652.78;;;27.00;46.54
45078;BME280;60508;42.622;25.416;2023-06-14T09:43:01;96639.81;;;27.17;45.64
45078;BME280;60508;42.622;25.416;2023-06-14T09:45:40;96642.28;;;27.22;43.80
45078;BME280;60508;42.622;25.416;2023-06-14T09:48:07;96637.75;;;27.29;45.64
45078;BME280;60508;42.622;25.416;2023-06-14T09:50:36;96646.22;;;27.37;45.94
45078;BME280;60508;42.622;25.416;2023-06-14T09:53:07;96643.75;;;27.47;44.60
45078;BME280;60508;42.622;25.416;2023-06-14T09:55:44;96633.38;;;27.12;45.86
45078;BME280;60508;42.622;25.416;2023-06-14T09:58:16;96635.28;;;26.36;48.06
45078;BME280;60508;42.622;25.416;2023-06-14T10:00:44;96643.03;;;25.93;50.23
45078;BME280;60508;42.622;25.416;2023-06-14T10:03:19;96638.16;;;25.49;51.08
45078;BME280;60508;42.622;25.416;2023-06-14T10:05:50;96638.03;;;25.33;51.02
45078;BME280;60508;42.622;25.416;2023-06-14T10:08:18;96637.00;;;25.38;51.45
45078;BME280;60508;42.622;25.416;2023-06-14T10:10:57;96630.59;;;25.71;51.39
45078;BME280;60508;42.622;25.416;2023-06-14T10:13:26;96631.25;;;25.80;52.18
45078;BME280;60508;42.622;25.416;2023-06-14T10:18:49;96635.50;;;25.78;52.46
45078;BME280;60508;42.622;25.416;2023-06-14T10:24:34;96638.91;;;25.13;54.50
45078;BME280;60508;42.622;25.416;2023-06-14T10:27:13;96645.25;;;24.80;55.24
45078;BME280;60508;42.622;25.416;2023-06-14T10:32:23;96640.28;;;24.19;57.31
45078;BME280;60508;42.622;25.416;2023-06-14T10:37:28;96635.44;;;23.74;60.47
45078;BME280;60508;42.622;25.416;2023-06-14T10:39:55;96635.69;;;23.60;61.75
45078;BME280;60508;42.622;25.416;2023-06-14T10:42:29;96635.72;;;23.51;61.26
45078;BME280;60508;42.622;25.416;2023-06-14T10:44:58;96639.13;;;23.48;61.29
45078;BME280;60508;42.622;25.416;2023-06-14T10:47:37;96644.88;;;23.25;62.80
45078;BME280;60508;42.622;25.416;2023-06-14T10:50:07;96641.59;;;23.11;65.01
45078;BME280;60508;42.622;25.416;2023-06-14T10:52:38;96641.41;;;23.07;64.93
45078;BME280;60508;42.622;25.416;2023-06-14T10:55:14;96643.03;;;23.00;67.38
45078;BME280;60508;42.622;25.416;2023-06-14T10:57:51;96635.63;;;22.91;68.06
45078;BME280;60508;42.622;25.416;2023-06-14T11:00:23;96641.41;;;23.07;68.42
45078;BME280;60508;42.622;25.416;2023-06-14T11:11:32;96629.66;;;23.45;71.79
45078;BME280;60508;42.622;25.416;2023-06-14T11:14:01;96634.13;;;23.50;71.26
45078;BME280;60508;42.622;25.416;2023-06-14T11:16:31;96628.22;;;23.69;70.89
45078;BME280;60508;42.622;25.416;2023-06-14T11:19:02;96628.72;;;23.92;71.94
45078;BME280;60508;42.622;25.416;2023-06-14T11:21:33;96630.06;;;24.07;71.52
45078;BME280;60508;42.622;25.416;2023-06-14T11:24:00;96635.59;;;24.40;69.70
45078;BME280;60508;42.622;25.416;2023-06-14T11:26:34;96633.75;;;24.66;68.12
45078;BME280;60508;42.622;25.416;2023-06-14T11:29:03;96633.84;;;24.90;67.36
45078;BME280;60508;42.622;25.416;2023-06-14T11:31:30;96634.44;;;25.21;67.59
45078;BME280;60508;42.622;25.416;2023-06-14T11:33:58;96637.72;;;25.60;67.42
45078;BME280;60508;42.622;25.416;2023-06-14T11:36:29;96636.44;;;25.45;62.66
45078;BME280;60508;42.622;25.416;2023-06-14T11:39:04;96628.25;;;24.99;62.36
45078;BME280;60508;42.622;25.416;2023-06-14T11:41:45;96624.88;;;24.81;64.30
45078;BME280;60508;42.622;25.416;2023-06-14T11:44:12;96636.78;;;24.73;66.53
45078;BME280;60508;42.622;25.416;2023-06-14T11:46:48;96633.44;;;24.67;65.28
45078;BME280;60508;42.622;25.416;2023-06-14T11:49:15;96630.34;;;24.48;66.30
45078;BME280;60508;42.622;25.416;2023-06-14T11:51:43;96636.19;;;24.46;67.97
45078;BME280;60508;42.622;25.416;2023-06-14T11:54:11;96633.88;;;24.36;67.01
45078;BME280;60508;42.622;25.416;2023-06-14T11:56:46;96630.25;;;24.23;66.35
45078;BME280;60508;42.622;25.416;2023-06-14T11:59:13;96635.53;;;24.28;66.55
45078;BME280;60508;42.622;25.416;2023-06-14T12:01:47;96628.44;;;24.27;66.01
45078;BME280;60508;42.622;25.416;2023-06-14T12:04:24;96623.00;;;24.39;65.14
45078;BME280;60508;42.622;25.416;2023-06-14T12:06:51;96628.75;;;24.68;64.58
45078;BME280;60508;42.622;25.416;2023-06-14T12:09:20;96613.44;;;24.91;63.99
45078;BME280;60508;42.622;25.416;2023-06-14T12:12:00;96631.00;;;24.99;62.76
45078;BME280;60508;42.622;25.416;2023-06-14T12:14:29;96625.34;;;25.29;63.77
45078;BME280;60508;42.622;25.416;2023-06-14T12:17:06;96617.72;;;25.13;61.05
45078;BME280;60508;42.622;25.416;2023-06-14T12:19:42;96616.34;;;25.20;62.14
45078;BME280;60508;42.622;25.416;2023-06-14T12:22:11;96614.50;;;25.24;62.35
45078;BME280;60508;42.622;25.416;2023-06-14T12:24:46;96603.69;;;25.27;61.60
45078;BME280;60508;42.622;25.416;2023-06-14T12:27:16;96601.59;;;25.61;61.15
45078;BME280;60508;42.622;25.416;2023-06-14T12:29:45;96596.94;;;25.90;60.40
45078;BME280;60508;42.622;25.416;2023-06-14T12:32:11;96595.22;;;25.98;58.29
45078;BME280;60508;42.622;25.416;2023-06-14T12:34:40;96591.94;;;26.20;56.96
45078;BME280;60508;42.622;25.416;2023-06-14T12:37:07;96593.38;;;26.30;56.13
45078;BME280;60508;42.622;25.416;2023-06-14T12:39:34;96591.38;;;26.71;54.44
45078;BME280;60508;42.622;25.416;2023-06-14T12:42:01;96580.38;;;27.03;51.84
45078;BME280;60508;42.622;25.416;2023-06-14T12:44:30;96584.47;;;27.41;50.52
45078;BME280;60508;42.622;25.416;2023-06-14T12:46:57;96582.84;;;27.56;48.00
45078;BME280;60508;42.622;25.416;2023-06-14T12:49:25;96579.31;;;27.75;48.50
45078;BME280;60508;42.622;25.416;2023-06-14T12:51:51;96577.59;;;27.86;47.33
45078;BME280;60508;42.622;25.416;2023-06-14T12:54:24;96576.47;;;28.07;46.78
45078;BME280;60508;42.622;25.416;2023-06-14T12:56:54;96574.56;;;28.31;46.85
45078;BME280;60508;42.622;25.416;2023-06-14T12:59:21;96562.75;;;28.53;45.95
45078;BME280;60508;42.622;25.416;2023-06-14T13:01:48;96568.72;;;28.75;46.09
45078;BME280;60508;42.622;25.416;2023-06-14T13:04:25;96562.75;;;28.96;45.13
45078;BME280;60508;42.622;25.416;2023-06-14T13:06:52;96567.84;;;29.17;44.33
45078;BME280;60508;42.622;25.416;2023-06-14T13:09:19;96563.41;;;29.12;43.63
45078;BME280;60508;42.622;25.416;2023-06-14T13:11:46;96560.91;;;29.04;44.58
45078;BME280;60508;42.622;25.416;2023-06-14T13:14:13;96561.50;;;28.93;44.50
45078;BME280;60508;42.622;25.416;2023-06-14T13:16:40;96562.75;;;28.96;44.28
45078;BME280;60508;42.622;25.416;2023-06-14T13:19:06;96556.50;;;28.99;44.02
45078;BME280;60508;42.622;25.416;2023-06-14T13:21:41;96557.97;;;28.70;42.51
45078;BME280;60508;42.622;25.416;2023-06-14T13:24:08;96558.66;;;28.24;44.23
45078;BME280;60508;42.622;25.416;2023-06-14T13:26:36;96560.13;;;28.37;44.36